Time;durP1;ratioP1;P1;durP2;ratioP2;P2;SDS_P1;SDS_P2;PMS_P1;PMS_P2;Temp;Humidity;BMP_temperature;BMP_pressure;BME280_temperature;BME280_humidity;BME280_pressure;Samples;Min_cycle;Max_cycle;Signal;HPM_P1;HPM_P2
2023/04/11 00:00:12;;;;;;;;;;;8.60;99.90;;;;;;5013104;28;20342;-75
2023/04/11 00:02:40;;;;;;;;;;;8.20;99.90;;;;;;5012529;28;19921;-75
2023/04/11 00:05:09;;;;;;;;;;;8.90;99.90;;;;;;5012902;28;19925;-74
2023/04/11 00:07:37;;;;;;;;;;;8.00;99.90;;;;;;4994718;28;19926;-74
2023/04/11 00:10:03;;;;;;;;;;;8.00;99.90;;;;;;5032048;28;20054;-74
2023/04/11 00:12:29;;;;;;;;;;;7.90;99.90;;;;;;5033146;28;20042;-74
2023/04/11 00:14:57;;;;;;;;;;;7.90;99.90;;;;;;5014208;28;20402;-75
2023/04/11 00:17:23;;;;;;;;;;;7.80;99.90;;;;;;5015204;28;19921;-75
2023/04/11 00:19:52;;;;;;;;;;;7.80;99.90;;;;;;5030753;28;20395;-75
2023/04/11 00:22:23;;;;;;;;;;;7.80;99.90;;;;;;5014405;28;19967;-75
2023/04/11 00:24:49;;;;;;;;;;;7.70;99.90;;;;;;5032727;28;20327;-75
2023/04/11 00:27:17;;;;;;;;;;;7.80;99.90;;;;;;5032566;28;19925;-75
2023/04/11 00:29:42;;;;;;;;;;;7.80;99.90;;;;;;5031883;28;19921;-74
2023/04/11 00:32:08;;;;;;;;;;;7.80;99.90;;;;;;5032180;28;20004;-75
2023/04/11 00:34:34;;;;;;;;;;;8.20;99.90;;;;;;5015166;28;20031;-75
2023/04/11 00:37:00;;;;;;;;;;;7.90;99.90;;;;;;5031807;28;20288;-75
2023/04/11 00:39:29;;;;;;;;;;;7.90;99.90;;;;;;5032198;28;19921;-76
2023/04/11 00:42:02;;;;;;;;;;;7.90;99.90;;;;;;5014700;28;20016;-75
2023/04/11 00:44:28;;;;;;;;;;;7.90;99.90;;;;;;5014264;28;19921;-75
2023/04/11 00:46:54;;;;;;;;;;;7.90;99.90;;;;;;5014836;28;19928;-75
2023/04/11 00:49:19;;;;;;;;;;;8.00;99.90;;;;;;5012946;28;20368;-74
2023/04/11 00:51:45;;;;;;;;;;;8.00;99.90;;;;;;5031700;28;19964;-75
2023/04/11 00:54:10;;;;;;;;;;;8.00;99.90;;;;;;5032359;28;19991;-74
2023/04/11 00:56:36;;;;;;;;;;;8.40;99.90;;;;;;5014117;28;20354;-74
2023/04/11 00:59:02;;;;;;;;;;;8.00;99.90;;;;;;5032217;28;19921;-75
2023/04/11 01:01:28;;;;;;;;;;;8.00;99.90;;;;;;5014621;28;19921;-74
2023/04/11 01:03:54;;;;;;;;;;;8.50;99.90;;;;;;5013162;28;19921;-75
2023/04/11 01:06:22;;;;;;;;;;;8.50;99.90;;;;;;5014792;28;19925;-75
2023/04/11 01:08:48;;;;;;;;;;;8.10;99.90;;;;;;5033646;28;19921;-75
2023/04/11 01:11:16;;;;;;;;;;;8.60;99.90;;;;;;5017598;28;19928;-75
2023/04/11 01:13:42;;;;;;;;;;;8.10;99.90;;;;;;5017764;28;19921;-75
2023/04/11 01:16:08;;;;;;;;;;;8.50;99.90;;;;;;5035659;28;19921;-75
2023/04/11 01:18:35;;;;;;;;;;;8.20;99.90;;;;;;5003909;28;19928;-75
2023/04/11 01:21:00;;;;;;;;;;;8.20;99.90;;;;;;4998284;28;20384;-75
2023/04/11 01:23:26;;;;;;;;;;;8.10;99.90;;;;;;4998366;28;19940;-75
2023/04/11 01:25:51;;;;;;;;;;;8.10;99.90;;;;;;5015773;28;19921;-75
2023/04/11 01:28:17;;;;;;;;;;;8.10;99.90;;;;;;5017366;28;19928;-75
2023/04/11 01:30:43;;;;;;;;;;;8.10;99.90;;;;;;5035511;28;19921;-75
2023/04/11 01:33:09;;;;;;;;;;;8.10;99.90;;;;;;5016623;28;19921;-75
2023/04/11 01:35:35;;;;;;;;;;;8.60;99.90;;;;;;5017719;28;19964;-75
2023/04/11 01:38:02;;;;;;;;;;;8.00;99.90;;;;;;5017457;28;20411;-75
2023/04/11 01:40:28;;;;;;;;;;;8.00;99.90;;;;;;5016779;28;19921;-74
2023/04/11 01:42:54;;;;;;;;;;;8.10;99.90;;;;;;5035013;28;20372;-74
2023/04/11 01:45:20;;;;;;;;;;;8.00;99.90;;;;;;5035282;28;19917;-74
2023/04/11 01:47:46;;;;;;;;;;;8.00;99.90;;;;;;5018043;28;19932;-74
2023/04/11 01:50:12;;;;;;;;;;;8.00;99.90;;;;;;4997855;28;19921;-74
2023/04/11 01:52:37;;;;;;;;;;;8.00;99.90;;;;;;4997759;28;19933;-75
2023/04/11 01:55:03;;;;;;;;;;;8.10;99.90;;;;;;5015551;28;19921;-75
2023/04/11 01:57:29;;;;;;;;;;;8.00;99.90;;;;;;5015386;28;19921;-74
2023/04/11 01:59:55;;;;;;;;;;;8.00;99.90;;;;;;4996589;28;19921;-75
2023/04/11 02:02:20;;;;;;;;;;;8.30;99.90;;;;;;4997685;28;19968;-75
2023/04/11 02:04:46;;;;;;;;;;;8.00;99.90;;;;;;4997586;28;19980;-74
2023/04/11 02:07:32;;;;;;;;;;;8.00;99.90;;;;;;4996502;28;19925;-74
2023/04/11 02:09:58;;;;;;;;;;;8.20;99.90;;;;;;5014188;28;20341;-75
2023/04/11 02:12:23;;;;;;;;;;;8.00;99.90;;;;;;5015287;28;20016;-74
2023/04/11 02:14:49;;;;;;;;;;;8.00;99.90;;;;;;4996917;28;19921;-74
2023/04/11 02:17:17;;;;;;;;;;;8.00;99.90;;;;;;4997093;28;19921;-74
2023/04/11 02:19:44;;;;;;;;;;;7.90;99.90;;;;;;4997926;28;19921;-75
2023/04/11 02:22:10;;;;;;;;;;;7.90;99.90;;;;;;4996644;28;19921;-75
2023/04/11 02:24:36;;;;;;;;;;;8.10;99.90;;;;;;5014794;28;20395;-74
2023/04/11 02:27:02;;;;;;;;;;;8.00;99.90;;;;;;5014252;28;19976;-75
2023/04/11 02:29:28;;;;;;;;;;;8.00;99.90;;;;;;5014062;28;20004;-74
2023/04/11 02:31:54;;;;;;;;;;;8.00;99.90;;;;;;5014515;28;19971;-75
2023/04/11 02:34:19;;;;;;;;;;;8.00;99.90;;;;;;5014625;28;19928;-75
2023/04/11 02:36:45;;;;;;;;;;;8.10;99.90;;;;;;4996436;28;19929;-74
2023/04/11 02:39:14;;;;;;;;;;;8.10;99.90;;;;;;4993422;28;19925;-74
2023/04/11 02:41:40;;;;;;;;;;;8.10;99.90;;;;;;4993554;28;19933;-74
2023/04/11 02:44:06;;;;;;;;;;;8.10;99.90;;;;;;4993896;28;19926;-75
2023/04/11 02:46:33;;;;;;;;;;;9.20;99.90;;;;;;4993861;28;19961;-75
2023/04/11 02:48:59;;;;;;;;;;;8.10;99.90;;;;;;4994567;28;19957;-75
2023/04/11 02:51:25;;;;;;;;;;;8.10;99.90;;;;;;4993922;28;19922;-74
2023/04/11 02:53:51;;;;;;;;;;;8.10;99.90;;;;;;5010921;28;19921;-74
2023/04/11 02:56:17;;;;;;;;;;;8.10;99.90;;;;;;5012434;28;19928;-74
2023/04/11 02:58:46;;;;;;;;;;;8.10;99.90;;;;;;5012913;28;19948;-74
2023/04/11 03:01:13;;;;;;;;;;;8.20;99.90;;;;;;5012519;28;20011;-75
2023/04/11 03:03:42;;;;;;;;;;;8.10;99.90;;;;;;5000767;28;20262;-75
2023/04/11 03:06:08;;;;;;;;;;;8.20;99.90;;;;;;4994000;28;19922;-75
2023/04/11 03:08:38;;;;;;;;;;;8.20;99.90;;;;;;4994681;28;20262;-75
2023/04/11 03:11:03;;;;;;;;;;;8.20;99.90;;;;;;4991981;28;20293;-75
2023/04/11 03:13:29;;;;;;;;;;;8.20;99.90;;;;;;4992968;28;19922;-75
2023/04/11 03:15:55;;;;;;;;;;;8.20;99.90;;;;;;4993774;28;19921;-74
2023/04/11 03:18:23;;;;;;;;;;;8.20;99.90;;;;;;4992560;28;19929;-75
2023/04/11 03:20:52;;;;;;;;;;;8.20;99.90;;;;;;4993793;28;20381;-74
2023/04/11 03:23:17;;;;;;;;;;;8.20;99.90;;;;;;4993950;28;19925;-74
2023/04/11 03:25:44;;;;;;;;;;;8.10;99.90;;;;;;4992303;28;20413;-74
2023/04/11 03:28:10;;;;;;;;;;;8.20;99.90;;;;;;4994616;28;20377;-75
2023/04/11 03:30:39;;;;;;;;;;;8.80;99.90;;;;;;5013212;28;19924;-74
2023/04/11 03:33:04;;;;;;;;;;;8.20;99.90;;;;;;5011335;28;19921;-74
2023/04/11 03:35:30;;;;;;;;;;;8.10;99.90;;;;;;5012498;28;19918;-74
2023/04/11 03:37:56;;;;;;;;;;;8.10;99.90;;;;;;5012230;28;19933;-74
2023/04/11 03:40:21;;;;;;;;;;;8.10;99.90;;;;;;5026667;28;20406;-75
2023/04/11 03:42:47;;;;;;;;;;;8.20;99.90;;;;;;5015792;28;19921;-74
2023/04/11 03:45:13;;;;;;;;;;;8.20;99.90;;;;;;4999566;28;19968;-74
2023/04/11 03:47:39;;;;;;;;;;;8.90;99.90;;;;;;4995639;28;20317;-74
2023/04/11 03:50:08;;;;;;;;;;;8.10;99.90;;;;;;4995881;28;19922;-74
2023/04/11 03:52:34;;;;;;;;;;;8.10;99.90;;;;;;5013006;28;19925;-74
2023/04/11 03:54:59;;;;;;;;;;;8.10;99.90;;;;;;5013891;28;19928;-74
2023/04/11 03:57:26;;;;;;;;;;;8.10;99.90;;;;;;5013410;28;20004;-75
2023/04/11 03:59:52;;;;;;;;;;;8.20;99.90;;;;;;5011610;28;19991;-74
2023/04/11 04:02:17;;;;;;;;;;;8.10;99.90;;;;;;5030597;28;20368;-74
2023/04/11 04:04:45;;;;;;;;;;;8.10;99.90;;;;;;5007401;28;19921;-74
2023/04/11 04:07:14;;;;;;;;;;;8.20;99.90;;;;;;4994411;28;20289;-74
2023/04/11 04:09:40;;;;;;;;;;;8.00;99.90;;;;;;4995849;28;19917;-74
2023/04/11 04:12:06;;;;;;;;;;;8.00;99.90;;;;;;4995477;28;20336;-74
2023/04/11 04:14:32;;;;;;;;;;;8.00;99.90;;;;;;4994816;28;19970;-75
2023/04/11 04:16:57;;;;;;;;;;;8.00;99.90;;;;;;5012578;28;19921;-75
2023/04/11 04:19:23;;;;;;;;;;;7.90;99.90;;;;;;5001713;28;19936;-75
2023/04/11 04:21:48;;;;;;;;;;;7.80;99.90;;;;;;5014077;28;19921;-75
2023/04/11 04:24:14;;;;;;;;;;;7.70;99.90;;;;;;5013756;28;19921;-75
2023/04/11 04:26:40;;;;;;;;;;;7.60;99.90;;;;;;5008448;28;19925;-75
2023/04/11 04:29:08;;;;;;;;;;;7.70;99.90;;;;;;5012141;28;19976;-75
2023/04/11 04:31:34;;;;;;;;;;;7.80;99.90;;;;;;4995542;28;20365;-74
2023/04/11 04:34:10;;;;;;;;;;;7.60;99.90;;;;;;4997687;28;19929;-75
2023/04/11 04:36:45;;;;;;;;;;;7.60;99.90;;;;;;5021088;28;19972;-75
2023/04/11 04:39:16;;;;;;;;;;;7.70;99.90;;;;;;5024838;28;19925;-75
2023/04/11 04:41:47;;;;;;;;;;;7.70;99.90;;;;;;5014058;28;20007;-75
2023/04/11 04:44:16;;;;;;;;;;;7.70;99.90;;;;;;5012680;28;20296;-75
2023/04/11 04:46:42;;;;;;;;;;;7.70;99.90;;;;;;5016542;28;19925;-75
2023/04/11 04:49:07;;;;;;;;;;;7.70;99.90;;;;;;4998147;28;19921;-75
2023/04/11 04:51:34;;;;;;;;;;;7.70;99.90;;;;;;4998835;28;19921;-75
2023/04/11 04:54:00;;;;;;;;;;;7.60;99.90;;;;;;5016723;28;19922;-73
2023/04/11 04:56:29;;;;;;;;;;;8.20;99.90;;;;;;5015255;28;19976;-73
2023/04/11 04:58:55;;;;;;;;;;;7.60;99.90;;;;;;4998569;28;19944;-73
2023/04/11 05:01:25;;;;;;;;;;;7.60;99.90;;;;;;5016338;28;20328;-74
2023/04/11 05:03:57;;;;;;;;;;;7.60;99.90;;;;;;4998103;28;19928;-73
2023/04/11 05:06:32;;;;;;;;;;;7.60;99.90;;;;;;5013227;28;19917;-76
2023/04/11 05:08:59;;;;;;;;;;;7.60;99.90;;;;;;4998593;28;19922;-85
2023/04/11 05:11:25;;;;;;;;;;;7.60;99.90;;;;;;5015207;28;20332;-74
2023/04/11 05:13:51;;;;;;;;;;;7.60;99.90;;;;;;5024421;28;19932;-69
2023/04/11 05:16:17;;;;;;;;;;;7.70;99.90;;;;;;5031553;28;19925;-74
2023/04/11 05:18:45;;;;;;;;;;;7.70;99.90;;;;;;5012397;28;20015;-74
2023/04/11 05:21:14;;;;;;;;;;;7.60;99.90;;;;;;4997711;28;19979;-72
2023/04/11 05:23:40;;;;;;;;;;;7.90;99.90;;;;;;4997752;28;19921;-71
2023/04/11 05:26:06;;;;;;;;;;;7.80;99.90;;;;;;5014942;28;19925;-72
2023/04/11 05:28:32;;;;;;;;;;;7.70;99.90;;;;;;5003711;28;19921;-74
2023/04/11 05:31:04;;;;;;;;;;;7.70;99.90;;;;;;5015115;28;19921;-70
2023/04/11 05:33:30;;;;;;;;;;;7.70;99.90;;;;;;5033440;28;19921;-70
2023/04/11 05:35:55;;;;;;;;;;;7.80;99.90;;;;;;5015212;28;20360;-69
2023/04/11 05:38:21;;;;;;;;;;;7.80;99.90;;;;;;5012929;28;20012;-69
2023/04/11 05:40:46;;;;;;;;;;;7.80;99.90;;;;;;5013244;28;20445;-70
2023/04/11 05:43:15;;;;;;;;;;;7.90;99.90;;;;;;4997716;28;19921;-71
2023/04/11 05:45:40;;;;;;;;;;;7.80;99.90;;;;;;5027664;28;20373;-70
2023/04/11 05:48:06;;;;;;;;;;;7.80;99.90;;;;;;5014850;28;19927;-70
2023/04/11 05:50:32;;;;;;;;;;;7.90;99.90;;;;;;5015397;28;19964;-70
2023/04/11 05:52:58;;;;;;;;;;;7.90;99.90;;;;;;4996383;28;19927;-70
2023/04/11 05:55:24;;;;;;;;;;;7.90;99.90;;;;;;5015520;28;20412;-71
2023/04/11 05:57:49;;;;;;;;;;;7.90;99.90;;;;;;4997044;28;19975;-69
2023/04/11 06:00:16;;;;;;;;;;;8.00;99.90;;;;;;5014080;28;19929;-71
2023/04/11 06:02:41;;;;;;;;;;;7.90;99.90;;;;;;4997497;28;20348;-71
2023/04/11 06:05:10;;;;;;;;;;;7.90;99.90;;;;;;5014723;28;19925;-70
2023/04/11 06:07:36;;;;;;;;;;;8.10;99.90;;;;;;4997510;28;20430;-68
2023/04/11 06:10:02;;;;;;;;;;;8.00;99.90;;;;;;5007889;28;19921;-69
2023/04/11 06:12:28;;;;;;;;;;;8.00;99.90;;;;;;5011972;28;19921;-71
2023/04/11 06:14:53;;;;;;;;;;;8.50;99.90;;;;;;5030803;28;20011;-71
2023/04/11 06:17:19;;;;;;;;;;;8.30;99.90;;;;;;5015186;28;19959;-77
2023/04/11 06:19:47;;;;;;;;;;;8.00;99.90;;;;;;5016641;28;19925;-70
2023/04/11 06:22:12;;;;;;;;;;;8.70;99.90;;;;;;5014578;28;19917;-71
2023/04/11 06:24:39;;;;;;;;;;;8.60;99.90;;;;;;5016149;28;20361;-75
2023/04/11 06:27:08;;;;;;;;;;;8.00;99.90;;;;;;5032812;28;20292;-73
2023/04/11 06:29:33;;;;;;;;;;;8.00;99.90;;;;;;5032681;28;19917;-71
2023/04/11 06:31:59;;;;;;;;;;;8.00;99.90;;;;;;5033859;28;19936;-70
2023/04/11 06:34:24;;;;;;;;;;;8.00;99.90;;;;;;5033478;28;19921;-72
2023/04/11 06:36:50;;;;;;;;;;;8.00;99.90;;;;;;5034066;28;19951;-71
2023/04/11 06:39:16;;;;;;;;;;;8.50;99.90;;;;;;5004773;28;19925;-72
2023/04/11 06:41:41;;;;;;;;;;;8.10;99.90;;;;;;5013940;28;20008;-72
2023/04/11 06:44:07;;;;;;;;;;;8.10;99.90;;;;;;4996866;28;19925;-72
2023/04/11 06:46:32;;;;;;;;;;;8.20;99.90;;;;;;5014546;28;19918;-71
2023/04/11 06:48:58;;;;;;;;;;;8.20;99.90;;;;;;4995799;28;20332;-71
2023/04/11 06:51:24;;;;;;;;;;;8.60;99.90;;;;;;4996659;28;19921;-71
2023/04/11 06:53:49;;;;;;;;;;;8.30;99.90;;;;;;4996601;28;19940;-71
2023/04/11 06:56:15;;;;;;;;;;;8.20;99.90;;;;;;4995471;28;20404;-71
2023/04/11 06:58:41;;;;;;;;;;;8.40;99.90;;;;;;4996490;28;19944;-71
2023/04/11 07:01:07;;;;;;;;;;;8.50;99.90;;;;;;4996844;28;19932;-71
2023/04/11 07:03:32;;;;;;;;;;;8.40;99.90;;;;;;5013730;28;20369;-73
2023/04/11 07:05:58;;;;;;;;;;;8.30;99.90;;;;;;4996062;28;19921;-69
2023/04/11 07:08:23;;;;;;;;;;;8.20;99.90;;;;;;4996546;28;19929;-69
2023/04/11 07:10:49;;;;;;;;;;;8.20;99.90;;;;;;5013718;28;19917;-69
2023/04/11 07:13:14;;;;;;;;;;;8.20;99.90;;;;;;4995984;28;20014;-69
2023/04/11 07:15:40;;;;;;;;;;;8.10;99.90;;;;;;5014071;28;19921;-71
2023/04/11 07:18:06;;;;;;;;;;;8.20;99.90;;;;;;4995164;28;19972;-72
2023/04/11 07:20:32;;;;;;;;;;;8.20;99.90;;;;;;5027677;28;19921;-71
2023/04/11 07:23:01;;;;;;;;;;;8.40;99.90;;;;;;5033183;28;19979;-71
2023/04/11 07:25:29;;;;;;;;;;;8.90;99.90;;;;;;5015182;28;19925;-71
2023/04/11 07:27:59;;;;;;;;;;;9.10;99.90;;;;;;5015441;28;19964;-71
2023/04/11 07:30:25;;;;;;;;;;;9.10;99.90;;;;;;5015770;28;19922;-70
2023/04/11 07:32:50;;;;;;;;;;;8.90;99.90;;;;;;5015067;28;19982;-70
2023/04/11 07:35:16;;;;;;;;;;;9.40;99.90;;;;;;5015271;28;20408;-70
2023/04/11 07:37:41;;;;;;;;;;;8.80;99.90;;;;;;5032834;28;20015;-71
2023/04/11 07:40:10;;;;;;;;;;;8.90;99.90;;;;;;5032736;28;19924;-71
2023/04/11 07:42:36;;;;;;;;;;;8.80;99.90;;;;;;5015768;28;19944;-71
2023/04/11 07:45:02;;;;;;;;;;;8.80;99.90;;;;;;5013831;28;20361;-71
2023/04/11 07:47:27;;;;;;;;;;;9.30;99.90;;;;;;5033424;28;19968;-70
2023/04/11 07:49:53;;;;;;;;;;;9.70;99.90;;;;;;5013800;28;20322;-71
2023/04/11 07:52:18;;;;;;;;;;;10.00;99.90;;;;;;5014955;28;20435;-70
2023/04/11 07:54:44;;;;;;;;;;;10.40;99.90;;;;;;5033204;28;20019;-71
2023/04/11 07:57:09;;;;;;;;;;;11.10;99.90;;;;;;5032624;28;19974;-71
2023/04/11 07:59:35;;;;;;;;;;;11.00;99.90;;;;;;5031888;28;19921;-69
2023/04/11 08:02:01;;;;;;;;;;;10.70;99.90;;;;;;5015307;28;19925;-70
2023/04/11 08:04:30;;;;;;;;;;;10.70;99.90;;;;;;5015057;28;19921;-71
2023/04/11 08:06:56;;;;;;;;;;;10.40;99.90;;;;;;5032196;28;19921;-70
2023/04/11 08:09:22;;;;;;;;;;;10.30;99.90;;;;;;5032779;28;19928;-71
2023/04/11 08:11:50;;;;;;;;;;;11.00;99.90;;;;;;5033357;28;20329;-71
2023/04/11 08:14:15;;;;;;;;;;;11.00;99.90;;;;;;5032486;28;20015;-71
2023/04/11 08:16:41;;;;;;;;;;;11.30;99.90;;;;;;5033098;28;20269;-72
2023/04/11 08:19:09;;;;;;;;;;;11.10;99.90;;;;;;5036177;28;20015;-72
2023/04/11 08:21:34;;;;;;;;;;;11.50;99.90;;;;;;5002206;28;19929;-71
2023/04/11 08:24:00;;;;;;;;;;;11.80;99.90;;;;;;5018762;28;19917;-72
2023/04/11 08:26:25;;;;;;;;;;;11.60;99.90;;;;;;5036895;28;19928;-72
2023/04/11 08:28:51;;;;;;;;;;;12.10;99.90;;;;;;5035906;28;19944;-71
2023/04/11 08:31:17;;;;;;;;;;;12.20;99.90;;;;;;5018945;28;19921;-71
2023/04/11 08:33:42;;;;;;;;;;;12.10;99.90;;;;;;5018561;28;20372;-72
2023/04/11 08:36:08;;;;;;;;;;;12.00;99.90;;;;;;5034474;28;19925;-71
2023/04/11 08:38:34;;;;;;;;;;;11.50;99.90;;;;;;5036564;28;20336;-71
2023/04/11 08:41:00;;;;;;;;;;;11.20;99.90;;;;;;5017429;28;19976;-71
2023/04/11 08:43:25;;;;;;;;;;;10.90;99.90;;;;;;5018938;28;19921;-70
2023/04/11 08:45:51;;;;;;;;;;;10.40;99.90;;;;;;5018537;28;19967;-70
2023/04/11 08:48:20;;;;;;;;;;;10.20;99.90;;;;;;5017856;28;19932;-71
2023/04/11 08:50:48;;;;;;;;;;;10.20;99.90;;;;;;5035936;28;19920;-70
2023/04/11 08:53:14;;;;;;;;;;;10.10;99.90;;;;;;5035751;28;19920;-71
2023/04/11 08:55:49;;;;;;;;;;;10.70;99.90;;;;;;5017634;28;20422;-71
2023/04/11 08:58:15;;;;;;;;;;;11.10;99.90;;;;;;5036331;28;19921;-72
2023/04/11 09:00:41;;;;;;;;;;;11.20;99.90;;;;;;5018020;28;19932;-71
2023/04/11 09:03:07;;;;;;;;;;;11.00;99.90;;;;;;5017092;28;20387;-71
2023/04/11 09:05:34;;;;;;;;;;;10.80;99.90;;;;;;5016637;28;19928;-71
2023/04/11 09:08:05;;;;;;;;;;;10.60;99.90;;;;;;4998414;28;19921;-71
2023/04/11 09:10:30;;;;;;;;;;;10.40;99.90;;;;;;4997752;28;19961;-71
2023/04/11 09:12:56;;;;;;;;;;;10.00;99.90;;;;;;5015653;28;20087;-71
2023/04/11 09:15:23;;;;;;;;;;;9.80;99.90;;;;;;5015737;28;19921;-71
2023/04/11 09:17:49;;;;;;;;;;;9.60;99.90;;;;;;4997769;28;20008;-71
2023/04/11 09:20:15;;;;;;;;;;;9.40;99.90;;;;;;5000454;28;20008;-71
2023/04/11 09:22:41;;;;;;;;;;;9.20;99.90;;;;;;4998742;28;20353;-72
2023/04/11 09:25:07;;;;;;;;;;;9.20;99.90;;;;;;5014942;28;20011;-71
2023/04/11 09:27:32;;;;;;;;;;;9.10;99.90;;;;;;4998623;28;20361;-71
2023/04/11 09:29:58;;;;;;;;;;;9.00;99.90;;;;;;5023759;28;19928;-71
2023/04/11 09:32:33;;;;;;;;;;;9.00;99.90;;;;;;5004640;28;20372;-71
2023/04/11 09:35:22;;;;;;;;;;;9.00;99.90;;;;;;4998112;28;20339;-70
2023/04/11 09:37:52;;;;;;;;;;;9.00;99.90;;;;;;5022240;28;19921;-70
2023/04/11 09:40:19;;;;;;;;;;;8.90;99.90;;;;;;5031736;28;19921;-70
2023/04/11 09:42:45;;;;;;;;;;;8.90;99.90;;;;;;5006384;28;19921;-70
2023/04/11 09:45:15;;;;;;;;;;;8.80;99.90;;;;;;4996902;28;19925;-72
2023/04/11 09:47:41;;;;;;;;;;;8.90;99.90;;;;;;5019070;28;20016;-71
2023/04/11 09:50:06;;;;;;;;;;;8.70;99.90;;;;;;5035162;28;19960;-72
2023/04/11 09:52:32;;;;;;;;;;;8.60;99.90;;;;;;5034630;28;19917;-71
2023/04/11 09:54:59;;;;;;;;;;;8.40;99.90;;;;;;5034932;28;20395;-69
2023/04/11 09:57:29;;;;;;;;;;;8.30;99.90;;;;;;5016942;28;19925;-71
2023/04/11 09:59:55;;;;;;;;;;;8.20;99.90;;;;;;5014356;28;20392;-71
2023/04/11 10:02:20;;;;;;;;;;;8.20;99.90;;;;;;5031916;28;19973;-71
2023/04/11 10:04:46;;;;;;;;;;;8.50;99.90;;;;;;4997874;28;20411;-75
2023/04/11 10:07:12;;;;;;;;;;;8.90;99.90;;;;;;5001021;28;20015;-76
2023/04/11 10:09:39;;;;;;;;;;;9.20;99.90;;;;;;5017155;28;20016;-74
2023/04/11 10:12:05;;;;;;;;;;;9.10;99.90;;;;;;5016804;28;19921;-74
2023/04/11 10:14:37;;;;;;;;;;;8.70;99.90;;;;;;5033082;28;20288;-74
2023/04/11 10:17:12;;;;;;;;;;;8.50;99.90;;;;;;5034037;28;19921;-73
2023/04/11 10:19:41;;;;;;;;;;;8.40;99.90;;;;;;5006137;28;19921;-71
2023/04/11 10:22:07;;;;;;;;;;;8.80;99.90;;;;;;5015872;28;20414;-72
2023/04/11 10:24:32;;;;;;;;;;;9.30;99.90;;;;;;5016814;28;19928;-72
2023/04/11 10:26:58;;;;;;;;;;;9.60;99.90;;;;;;5015396;28;19920;-73
2023/04/11 10:29:33;;;;;;;;;;;10.40;99.90;;;;;;4997069;28;19917;-72
2023/04/11 10:32:11;;;;;;;;;;;11.80;99.90;;;;;;5014281;28;19967;-73
2023/04/11 10:34:37;;;;;;;;;;;13.10;99.90;;;;;;5026514;28;20031;-73
2023/04/11 10:37:09;;;;;;;;;;;13.60;99.90;;;;;;5016151;28;20357;-72
2023/04/11 10:39:46;;;;;;;;;;;13.90;99.90;;;;;;5034377;28;20351;-72
2023/04/11 10:42:24;;;;;;;;;;;14.20;99.90;;;;;;5033142;28;20340;-72
2023/04/11 10:45:25;;;;;;;;;;;14.40;99.90;;;;;;5033664;28;19921;-72
2023/04/11 10:48:06;;;;;;;;;;;15.70;99.90;;;;;;4971957;28;19981;-72
2023/04/11 10:50:40;;;;;;;;;;;14.30;99.90;;;;;;4971878;28;20435;-71
2023/04/11 10:53:07;;;;;;;;;;;13.50;99.90;;;;;;5015848;28;19929;-72
2023/04/11 10:55:43;;;;;;;;;;;12.40;99.90;;;;;;5033938;28;19975;-72
2023/04/11 10:58:15;;;;;;;;;;;11.60;99.90;;;;;;5015686;28;19928;-72
2023/04/11 11:00:50;;;;;;;;;;;11.70;99.90;;;;;;5016226;28;20388;-72
2023/04/11 11:03:19;;;;;;;;;;;12.00;99.90;;;;;;5032430;28;19928;-72
2023/04/11 11:05:45;;;;;;;;;;;12.90;99.90;;;;;;4996344;28;19922;-73
2023/04/11 11:08:11;;;;;;;;;;;13.90;99.90;;;;;;5013640;28;20412;-74
2023/04/11 11:10:41;;;;;;;;;;;13.90;99.90;;;;;;4998535;28;19947;-72
2023/04/11 11:13:07;;;;;;;;;;;13.30;99.90;;;;;;5015785;28;19921;-73
2023/04/11 11:15:40;;;;;;;;;;;12.80;99.90;;;;;;5033021;28;19921;-72
2023/04/11 11:18:07;;;;;;;;;;;12.20;99.90;;;;;;5031542;28;19929;-72
2023/04/11 11:20:33;;;;;;;;;;;11.90;99.90;;;;;;4997662;28;19922;-72
2023/04/11 11:22:59;;;;;;;;;;;12.00;99.90;;;;;;5012899;28;19936;-74
2023/04/11 11:25:25;;;;;;;;;;;13.00;99.90;;;;;;5013515;28;20400;-73
2023/04/11 11:28:07;;;;;;;;;;;13.40;99.90;;;;;;4995670;28;19921;-73
2023/04/11 11:30:34;;;;;;;;;;;13.40;99.90;;;;;;4995284;28;19967;-72
2023/04/11 11:33:13;;;;;;;;;;;13.30;99.90;;;;;;5013387;28;19931;-71
2023/04/11 11:35:38;;;;;;;;;;;12.70;99.90;;;;;;4996063;28;20492;-72
2023/04/11 11:38:04;;;;;;;;;;;12.40;99.90;;;;;;4994988;28;19929;-74
2023/04/11 11:40:29;;;;;;;;;;;11.70;99.90;;;;;;5029576;28;20295;-71
2023/04/11 11:42:55;;;;;;;;;;;11.40;99.90;;;;;;5032756;28;19968;-70
2023/04/11 11:45:21;;;;;;;;;;;10.90;99.90;;;;;;5021013;28;19921;-71
2023/04/11 11:47:48;;;;;;;;;;;11.20;99.90;;;;;;5026608;28;20343;-73
2023/04/11 11:50:26;;;;;;;;;;;11.60;99.90;;;;;;5015218;28;19927;-74
2023/04/11 11:53:09;;;;;;;;;;;12.50;99.90;;;;;;5031851;28;19920;-71
2023/04/11 11:55:35;;;;;;;;;;;12.20;99.90;;;;;;5016962;28;19975;-72
2023/04/11 11:58:01;;;;;;;;;;;11.70;99.90;;;;;;5015822;28;19959;-72
2023/04/11 12:00:27;;;;;;;;;;;12.10;99.90;;;;;;4995807;28;19926;-73
2023/04/11 12:02:54;;;;;;;;;;;12.50;99.90;;;;;;4995609;28;19921;-72
2023/04/11 12:05:19;;;;;;;;;;;12.60;99.90;;;;;;5012086;28;19951;-72
2023/04/11 12:07:45;;;;;;;;;;;12.30;99.90;;;;;;5020366;28;19921;-71
2023/04/11 12:10:15;;;;;;;;;;;11.60;99.90;;;;;;5030385;28;19972;-71
2023/04/11 12:12:41;;;;;;;;;;;11.40;99.90;;;;;;5030149;28;19971;-71
2023/04/11 12:15:11;;;;;;;;;;;11.50;99.90;;;;;;5030692;28;19925;-72
2023/04/11 12:17:37;;;;;;;;;;;11.30;99.90;;;;;;5004442;28;20324;-72
2023/04/11 12:20:06;;;;;;;;;;;11.20;99.90;;;;;;4992432;28;20412;-72
2023/04/11 12:22:35;;;;;;;;;;;10.80;99.90;;;;;;4994850;28;19925;-72
2023/04/11 12:25:18;;;;;;;;;;;10.50;99.90;;;;;;5007620;28;20356;-72
2023/04/11 12:27:44;;;;;;;;;;;10.20;99.90;;;;;;5014387;28;19928;-71
2023/04/11 12:30:11;;;;;;;;;;;10.10;99.90;;;;;;5032624;28;19975;-72
2023/04/11 12:32:40;;;;;;;;;;;9.90;99.90;;;;;;5032728;28;19928;-72
2023/04/11 12:35:06;;;;;;;;;;;10.00;99.90;;;;;;5024179;28;19921;-72
2023/04/11 12:37:32;;;;;;;;;;;10.10;99.90;;;;;;5014841;28;19928;-71
2023/04/11 12:39:57;;;;;;;;;;;10.20;99.90;;;;;;5013606;28;19970;-72
2023/04/11 12:42:23;;;;;;;;;;;10.20;99.90;;;;;;5032746;28;19999;-72
2023/04/11 12:44:50;;;;;;;;;;;10.40;99.90;;;;;;5025712;28;19932;-72
2023/04/11 12:47:15;;;;;;;;;;;11.10;99.90;;;;;;4995090;28;19944;-72
2023/04/11 12:49:41;;;;;;;;;;;12.10;99.90;;;;;;5012232;28;19921;-73
2023/04/11 12:52:10;;;;;;;;;;;12.80;99.90;;;;;;5012658;28;19932;-72
2023/04/11 12:54:35;;;;;;;;;;;13.20;99.90;;;;;;4995030;28;20431;-71
2023/04/11 12:57:01;;;;;;;;;;;13.30;99.90;;;;;;5000312;28;19921;-73
2023/04/11 12:59:27;;;;;;;;;;;13.50;99.90;;;;;;5012965;28;19967;-71
2023/04/11 13:01:55;;;;;;;;;;;13.20;99.90;;;;;;5011780;28;19917;-72
2023/04/11 13:04:21;;;;;;;;;;;12.90;99.90;;;;;;5013467;28;20346;-71
2023/04/11 13:06:46;;;;;;;;;;;12.60;99.90;;;;;;5024405;28;20379;-72
2023/04/11 13:09:12;;;;;;;;;;;12.70;99.90;;;;;;5032533;28;20360;-73
2023/04/11 13:11:38;;;;;;;;;;;13.00;99.90;;;;;;5035978;28;20383;-74
2023/04/11 13:14:04;;;;;;;;;;;13.30;99.90;;;;;;5035685;28;19921;-72
2023/04/11 13:16:29;;;;;;;;;;;13.20;99.90;;;;;;5002298;28;19968;-74
2023/04/11 13:18:55;;;;;;;;;;;12.90;99.90;;;;;;5015840;28;20275;-72
2023/04/11 13:21:21;;;;;;;;;;;12.20;99.90;;;;;;5017493;28;19925;-71
2023/04/11 13:23:46;;;;;;;;;;;11.80;99.90;;;;;;4997504;28;20063;-71
2023/04/11 13:26:12;;;;;;;;;;;11.60;99.90;;;;;;5016432;28;19976;-72
2023/04/11 13:28:37;;;;;;;;;;;11.50;99.90;;;;;;4997976;28;19922;-73
2023/04/11 13:31:03;;;;;;;;;;;11.50;99.90;;;;;;5014119;28;19917;-71
2023/04/11 13:33:30;;;;;;;;;;;11.70;99.90;;;;;;5015251;28;19922;-71
2023/04/11 13:35:55;;;;;;;;;;;11.80;99.90;;;;;;5013346;28;19921;-73
2023/04/11 13:38:21;;;;;;;;;;;11.90;99.90;;;;;;5027761;28;20028;-72
2023/04/11 13:40:46;;;;;;;;;;;12.00;99.90;;;;;;5012216;28;19921;-72
2023/04/11 13:43:12;;;;;;;;;;;11.70;99.90;;;;;;5012077;28;20392;-72
2023/04/11 13:45:37;;;;;;;;;;;11.60;99.90;;;;;;5012521;28;19968;-72
2023/04/11 13:48:03;;;;;;;;;;;11.60;99.90;;;;;;4999319;28;20021;-71
2023/04/11 13:50:28;;;;;;;;;;;11.80;99.90;;;;;;4994258;28;19925;-71
2023/04/11 13:52:55;;;;;;;;;;;11.80;99.90;;;;;;4994608;28;20012;-70
2023/04/11 13:55:22;;;;;;;;;;;11.70;99.90;;;;;;5011981;28;19928;-70
2023/04/11 13:57:47;;;;;;;;;;;11.60;99.90;;;;;;5013492;28;19960;-70
2023/04/11 14:00:13;;;;;;;;;;;11.30;99.90;;;;;;5014923;28;19956;-71
2023/04/11 14:02:39;;;;;;;;;;;11.10;99.90;;;;;;5012546;28;19922;-71
2023/04/11 14:05:06;;;;;;;;;;;10.80;99.90;;;;;;5008826;28;19924;-71
2023/04/11 14:07:39;;;;;;;;;;;10.70;99.90;;;;;;5014359;28;20432;-70
2023/04/11 14:10:08;;;;;;;;;;;10.80;99.90;;;;;;5013420;28;19923;-71
2023/04/11 14:12:34;;;;;;;;;;;10.80;99.90;;;;;;5014465;28;19974;-71
2023/04/11 14:15:00;;;;;;;;;;;10.80;99.90;;;;;;5013699;28;20008;-70
2023/04/11 14:17:25;;;;;;;;;;;10.90;99.90;;;;;;5026090;28;19921;-72
2023/04/11 14:19:51;;;;;;;;;;;10.90;99.90;;;;;;4993921;28;19922;-71
2023/04/11 14:22:17;;;;;;;;;;;11.00;99.90;;;;;;5003607;28;20055;-71
2023/04/11 14:24:42;;;;;;;;;;;11.00;99.90;;;;;;5014836;28;20028;-71